Terminal Aerodrome Forecast
Issued by NWS

Home | Current Version | Previous Version | Text Only | Print | Product List | Glossary On
Versions: 1 2 3 4 5 6 7 8 9 10 11 12 13 14 15 16 17 18 19 20 21 22 23 24 25 26
000
FTUS41 KBGM 240539
TAFITH
TAF
KITH 240539Z 2406/2506 22007KT P6SM OVC012
     FM240800 30007KT P6SM SCT007 OVC012
      TEMPO 2409/2413 4SM BR OVC007
     FM241500 32008KT P6SM OVC022
     FM241800 34005KT P6SM BKN035
     FM242100 VRB03KT P6SM OVC100
     FM250300 12005KT P6SM OVC040=

USA.gov is the U.S. government's official web portal to all federal, state and local government web resources and services.